Terminal Aerodrome Forecast
Issued by NWS

Home | Current Version | Previous Version | Graphics & Text | Print | Product List | Glossary On
Versions: 1 2 3 4 5 6 7 8 9 10 11 12 13 14 15 16 17 18 19 20 21 22 23 24
000
FTUS43 KLSX 211100
TAFSUS
TAF
KSUS 211128Z 2112/2212 23006KT P6SM VCSH FEW060 SCT120
      TEMPO 2113/2115 5SM -SHRA SCT050 BKN120
     FM211800 25008KT 5SM -SHRA VCTS SCT060CB BKN120
     FM220400 29008KT P6SM SCT060 BKN100
     FM220600 31008KT P6SM SKC=

USA.gov is the U.S. government's official web portal to all federal, state and local government web resources and services.